Terminal Aerodrome Forecast
Issued by NWS

Home | Current Version | Previous Version | Text Only | Print | Product List | Glossary On
Versions: 1 2 3 4 5 6 7 8 9 10 11 12 13 14 15 16 17 18 19 20 21 22 23 24 25 26 27 28 29 30 31 32 33 34
000
FTUS41 KOKX 241128
TAFGON
TAF
KGON 241128Z 2412/2512 22008KT 5SM SHRA BR SCT050 OVC080
     FM241300 23008KT 4SM SHRA BR BKN010 OVC025
      TEMPO 2413/2415 2SM +SHRA BR BKN007 OVC020
     FM241530 26010KT P6SM SCT050
      TEMPO 2417/2421 26012G19KT FEW050
     FM242200 29009KT P6SM FEW050
     FM250700 32003KT P6SM SCT070=

USA.gov is the U.S. government's official web portal to all federal, state and local government web resources and services.